Terminal Aerodrome Forecast
Issued by NWS Wilmington, OH

Current Version | Previous Version | Text Only | Print | Product List | Glossary Off
Versions: 1 2 3 4 5 6 7 8 9 10 11 12 13 14 15

000
FTUS41 KILN 011006 AAC
TAFILN
TAF AMD
KILN 011006Z 0110/0206 00000KT 3SM BR SKC
      TEMPO 0111/0112 1SM BR
     FM011300 24004KT P6SM SKC
     FM011800 25006KT P6SM BKN040
     FM020100 VRB03KT P6SM FEW050=

USA.gov is the U.S. government's official web portal to all federal, state and local government web resources and services.